Air Navigation Services of Czech Republic
Airport: LKNA Updated:  25.07.2017 12:08:04  UTC
 METAR LKNA 25.07. 12:00 ...
METAR LKNA 251200Z 28017KT 9999 SCT040 BKN050 18/06 Q1005 NOSIG=
 TAF LKNA 25.07. 11:00 ...
TAF LKNA 251100Z 2512/2612 27015KT CAVOK      TEMPO 2512/2518 28018G30KT BKN045      BECMG 2520/2522 25008KT      BECMG 2604/2606 BKN040=